createdAt,value
2023-04-22T00:00:44.459Z,0.80
2023-04-22T00:03:16.269Z,0.77
2023-04-22T00:05:46.743Z,0.77
2023-04-22T00:08:17.796Z,0.90
2023-04-22T00:10:47.958Z,0.70
2023-04-22T00:13:18.289Z,0.57
2023-04-22T00:15:48.654Z,0.85
2023-04-22T00:18:19.573Z,0.70
2023-04-22T00:20:49.744Z,0.70
2023-04-22T00:23:20.803Z,0.80
2023-04-22T00:25:51.074Z,0.73
2023-04-22T00:28:21.394Z,0.70
2023-04-22T00:30:52.488Z,0.85
2023-04-22T00:33:22.930Z,0.80
2023-04-22T00:35:53.407Z,0.80
2023-04-22T00:38:28.724Z,0.88
2023-04-22T00:40:59.615Z,0.80
2023-04-22T00:43:30.363Z,0.60
2023-04-22T00:46:01.295Z,0.95
2023-04-22T00:48:33.137Z,0.75
2023-04-22T00:51:03.348Z,0.60
2023-04-22T00:53:33.733Z,0.80
2023-04-22T00:56:03.901Z,0.77
2023-04-22T00:58:34.179Z,0.70
2023-04-22T01:01:04.477Z,0.85
2023-04-22T01:03:37.644Z,0.98
2023-04-22T01:06:08.700Z,0.77
2023-04-22T01:08:39.169Z,0.50
2023-04-22T01:11:09.866Z,0.60
2023-04-22T01:13:40.215Z,0.50
2023-04-22T01:16:12.090Z,0.70
2023-04-22T01:18:42.566Z,0.90
2023-04-22T01:21:13.590Z,0.70
2023-04-22T01:23:44.245Z,0.65
2023-04-22T01:26:14.754Z,0.73
2023-04-22T01:28:45.347Z,0.63
2023-04-22T01:31:15.692Z,0.80
2023-04-22T01:33:46.353Z,0.75
2023-04-22T01:36:16.594Z,0.82
2023-04-22T01:38:47.280Z,0.57
2023-04-22T01:41:17.989Z,1.00
2023-04-22T01:43:48.861Z,0.75
2023-04-22T01:46:20.214Z,0.60
2023-04-22T01:48:53.204Z,0.60
2023-04-22T01:51:23.606Z,0.80
2023-04-22T01:53:54.161Z,0.50
2023-04-22T01:56:24.386Z,0.90
2023-04-22T01:58:54.636Z,0.77
2023-04-22T02:01:24.920Z,0.95
2023-04-22T02:03:55.208Z,0.90
2023-04-22T02:06:25.517Z,0.95
2023-04-22T02:08:55.790Z,1.00
2023-04-22T02:11:26.082Z,0.70
2023-04-22T02:13:56.321Z,0.90
2023-04-22T02:16:26.777Z,1.30
2023-04-22T02:18:57.073Z,0.98
2023-04-22T02:21:27.330Z,1.10
2023-04-22T02:23:57.512Z,0.80
2023-04-22T02:26:27.922Z,0.80
2023-04-22T02:28:58.197Z,0.77
2023-04-22T02:31:28.616Z,0.98
2023-04-22T02:33:58.961Z,0.80
2023-04-22T02:36:30.429Z,0.80
2023-04-22T02:39:00.921Z,0.90
2023-04-22T02:41:31.276Z,0.95
2023-04-22T02:44:01.574Z,1.20
2023-04-22T02:46:31.845Z,0.75
2023-04-22T02:49:02.307Z,0.70
2023-04-22T02:51:34.533Z,0.80
2023-04-22T02:54:04.899Z,0.75
2023-04-22T02:56:35.273Z,0.70
2023-04-22T02:59:05.767Z,0.90
2023-04-22T03:01:35.995Z,0.80
2023-04-22T03:04:06.314Z,0.70
2023-04-22T03:06:36.603Z,0.60
2023-04-22T03:09:08.109Z,0.93
2023-04-22T03:11:38.314Z,0.85
2023-04-22T03:14:09.822Z,0.70
2023-04-22T03:16:40.321Z,0.90
2023-04-22T03:19:10.610Z,0.68
2023-04-22T03:21:40.809Z,0.63
2023-04-22T03:24:11.070Z,0.60
2023-04-22T03:26:41.425Z,0.73
2023-04-22T03:29:11.568Z,0.70
2023-04-22T03:31:41.806Z,0.80
2023-04-22T03:34:12.193Z,0.95
2023-04-22T03:36:42.408Z,1.00
2023-04-22T03:39:12.985Z,0.60
2023-04-22T03:41:43.320Z,0.82
2023-04-22T03:44:13.594Z,0.88
2023-04-22T03:46:43.838Z,0.90
2023-04-22T03:49:15.312Z,0.95
2023-04-22T03:51:45.571Z,0.80
2023-04-22T03:54:15.775Z,0.88
2023-04-22T03:56:45.941Z,0.73
2023-04-22T03:59:16.178Z,1.00
2023-04-22T04:01:48.373Z,0.80
2023-04-22T04:04:18.738Z,0.95
2023-04-22T04:06:49.222Z,0.70
2023-04-22T04:09:19.540Z,0.50
2023-04-22T04:11:50.036Z,1.02
2023-04-22T04:14:20.323Z,1.00
2023-04-22T04:16:50.746Z,1.10
2023-04-22T04:19:21.236Z,0.90
2023-04-22T04:21:51.700Z,0.65
2023-04-22T04:24:22.111Z,1.10
2023-04-22T04:26:53.026Z,0.95
2023-04-22T04:29:23.290Z,0.85
2023-04-22T04:31:53.649Z,0.75
2023-04-22T04:34:24.582Z,0.80
2023-04-22T04:36:54.792Z,0.85
2023-04-22T04:39:25.711Z,0.80
2023-04-22T04:41:57.058Z,0.75
2023-04-22T04:44:30.164Z,0.90
2023-04-22T04:47:00.981Z,0.73
2023-04-22T04:49:32.326Z,0.77
2023-04-22T04:52:03.085Z,0.75
2023-04-22T04:54:33.341Z,0.70
2023-04-22T04:57:03.576Z,0.77
2023-04-22T04:59:33.795Z,0.80
2023-04-22T05:02:04.127Z,0.85
2023-04-22T05:04:34.618Z,0.75
2023-04-22T05:07:06.140Z,0.65
2023-04-22T05:09:39.200Z,0.90
2023-04-22T05:12:10.078Z,0.60
2023-04-22T05:14:40.526Z,0.68
2023-04-22T05:17:11.037Z,0.90
2023-04-22T05:19:41.532Z,0.80
2023-04-22T05:22:12.990Z,0.82
2023-04-22T05:24:43.244Z,0.60
2023-04-22T05:27:16.785Z,0.77
2023-04-22T05:29:47.038Z,0.77
2023-04-22T05:32:17.669Z,0.80
2023-04-22T05:34:48.240Z,1.00
2023-04-22T05:37:18.510Z,0.80
2023-04-22T05:39:48.792Z,0.93
2023-04-22T05:42:19.044Z,0.88
2023-04-22T05:44:49.385Z,0.80
2023-04-22T05:47:19.859Z,0.73
2023-04-22T05:49:50.142Z,1.00
2023-04-22T05:52:20.515Z,0.70
2023-04-22T05:54:50.694Z,0.63
2023-04-22T05:57:21.103Z,0.70
2023-04-22T05:59:51.380Z,1.10
2023-04-22T06:02:22.071Z,1.00
2023-04-22T06:04:52.598Z,1.05
2023-04-22T06:07:23.221Z,0.93
2023-04-22T06:10:03.694Z,0.80
2023-04-22T06:12:36.598Z,0.90
2023-04-22T06:15:08.130Z,0.93
2023-04-22T06:17:38.955Z,1.00
2023-04-22T06:20:10.092Z,0.75
2023-04-22T06:22:40.769Z,0.63
2023-04-22T06:25:11.407Z,0.70
2023-04-22T06:27:41.671Z,0.80
2023-04-22T06:30:13.220Z,0.85
2023-04-22T06:32:43.513Z,0.60
2023-04-22T06:35:13.797Z,1.00
2023-04-22T06:37:44.065Z,1.00
2023-04-22T06:40:14.600Z,0.90
2023-04-22T06:42:47.895Z,0.90
2023-04-22T06:45:18.146Z,0.80
2023-04-22T06:47:48.987Z,0.77
2023-04-22T06:50:19.274Z,0.85
2023-04-22T06:52:49.937Z,0.95
2023-04-22T06:55:20.250Z,0.80
2023-04-22T06:57:50.526Z,0.98
2023-04-22T07:00:20.898Z,0.63
2023-04-22T07:02:51.147Z,0.77
2023-04-22T07:05:21.412Z,0.82
2023-04-22T07:07:51.650Z,0.70
2023-04-22T07:10:21.912Z,0.70
2023-04-22T07:12:53.144Z,0.82
2023-04-22T07:15:23.377Z,1.00
2023-04-22T07:17:53.704Z,0.80
2023-04-22T07:20:24.155Z,0.70
2023-04-22T07:22:54.590Z,0.80
2023-04-22T07:25:25.215Z,0.90
2023-04-22T07:27:55.682Z,1.08
2023-04-22T07:30:25.878Z,1.15
2023-04-22T07:32:56.136Z,1.17
2023-04-22T07:35:26.667Z,0.70
2023-04-22T07:37:58.014Z,1.10
2023-04-22T07:40:28.388Z,0.70
2023-04-22T07:42:58.978Z,1.00
2023-04-22T07:45:29.271Z,1.15
2023-04-22T07:47:59.722Z,1.10
2023-04-22T07:50:30.017Z,1.00
2023-04-22T07:53:00.373Z,1.00
2023-04-22T07:55:30.809Z,0.80
2023-04-22T07:58:02.843Z,0.80
2023-04-22T08:00:33.041Z,0.70
2023-04-22T08:03:03.677Z,0.90
2023-04-22T08:05:34.169Z,1.00
2023-04-22T08:08:04.536Z,0.80
2023-04-22T08:10:34.831Z,1.00
2023-04-22T08:13:05.125Z,0.73
2023-04-22T08:15:35.372Z,1.30
2023-04-22T08:18:05.755Z,0.80
2023-04-22T08:20:37.331Z,1.02
2023-04-22T08:23:09.166Z,0.93
2023-04-22T08:25:39.770Z,0.73
2023-04-22T08:28:10.302Z,0.68
2023-04-22T08:30:40.557Z,0.93
2023-04-22T08:33:11.056Z,0.90
2023-04-22T08:35:42.535Z,0.80
2023-04-22T08:38:13.092Z,0.75
2023-04-22T08:40:46.529Z,0.90
2023-04-22T08:43:17.198Z,0.80
2023-04-22T08:45:48.148Z,0.80
2023-04-22T08:48:21.223Z,0.80
2023-04-22T08:50:52.186Z,1.10
2023-04-22T08:53:24.778Z,1.05
2023-04-22T08:55:57.637Z,0.60
2023-04-22T08:58:28.401Z,0.80
2023-04-22T09:00:58.679Z,1.00
2023-04-22T09:03:30.035Z,1.38
2023-04-22T09:06:01.631Z,1.05
2023-04-22T09:08:32.616Z,0.90
2023-04-22T09:11:03.026Z,0.82
2023-04-22T09:13:33.517Z,0.70
2023-04-22T09:16:03.782Z,0.85
2023-04-22T09:18:40.976Z,0.90
2023-04-22T09:21:11.533Z,1.00
2023-04-22T09:23:53.096Z,0.90
2023-04-22T09:26:25.142Z,0.93
2023-04-22T09:29:00.927Z,1.10
2023-04-22T09:31:31.701Z,0.90
2023-04-22T09:34:03.194Z,0.90
2023-04-22T09:36:39.163Z,1.00
2023-04-22T09:39:11.273Z,1.02
2023-04-22T09:41:42.873Z,1.23
2023-04-22T09:44:18.518Z,1.10
2023-04-22T09:46:52.985Z,1.05
2023-04-22T09:49:24.272Z,0.93
2023-04-22T09:52:00.898Z,1.00
2023-04-22T09:54:31.432Z,1.13
2023-04-22T09:57:03.756Z,1.00
2023-04-22T09:59:34.305Z,1.20
2023-04-22T10:02:08.833Z,1.13
2023-04-22T10:04:40.563Z,1.27
2023-04-22T10:07:10.879Z,1.20
2023-04-22T10:09:42.227Z,1.23
2023-04-22T10:12:14.106Z,1.35
2023-04-22T10:14:45.441Z,1.27
2023-04-22T10:17:16.900Z,1.00
2023-04-22T10:19:51.176Z,1.27
2023-04-22T10:22:21.439Z,1.40
2023-04-22T10:24:52.208Z,1.27
2023-04-22T10:27:24.575Z,1.20
2023-04-22T10:29:55.004Z,1.77
2023-04-22T10:32:26.187Z,1.00
2023-04-22T10:35:18.082Z,1.42
2023-04-22T10:37:50.859Z,1.05
2023-04-22T10:40:21.958Z,1.52
2023-04-22T10:42:57.616Z,1.65
2023-04-22T10:45:28.856Z,1.50
2023-04-22T10:48:04.728Z,1.67
2023-04-22T10:50:35.698Z,1.30
2023-04-22T10:53:37.926Z,1.60
2023-04-22T10:56:22.917Z,1.30
2023-04-22T10:58:53.091Z,1.38
2023-04-22T11:01:23.658Z,1.60
2023-04-22T11:03:54.476Z,1.05
2023-04-22T11:06:28.238Z,1.33
2023-04-22T11:09:14.794Z,1.30
2023-04-22T11:11:45.461Z,1.40
2023-04-22T11:14:16.130Z,1.60
2023-04-22T11:16:50.042Z,1.70
2023-04-22T11:19:20.343Z,1.77
2023-04-22T11:21:51.396Z,1.40
2023-04-22T11:24:22.323Z,1.80
2023-04-22T11:26:52.634Z,1.58
2023-04-22T11:29:22.968Z,1.77
2023-04-22T11:31:53.317Z,1.50
2023-04-22T11:34:23.644Z,1.80
2023-04-22T11:36:54.416Z,1.52
2023-04-22T11:39:24.677Z,1.70
2023-04-22T11:41:55.006Z,1.90
2023-04-22T11:44:27.387Z,1.50
2023-04-22T11:46:59.976Z,2.00
2023-04-22T11:49:34.222Z,1.52
2023-04-22T11:52:04.590Z,1.80
2023-04-22T11:54:39.630Z,1.75
2023-04-22T11:57:13.464Z,1.90
2023-04-22T11:59:44.098Z,1.77
2023-04-22T12:02:14.508Z,1.77
2023-04-22T12:04:46.883Z,2.17
2023-04-22T12:07:18.432Z,1.95
2023-04-22T12:09:49.378Z,1.95
2023-04-22T12:12:19.853Z,2.00
2023-04-22T12:14:50.334Z,2.08
2023-04-22T12:17:28.667Z,2.10
2023-04-22T12:19:59.038Z,1.98
2023-04-22T12:22:30.829Z,2.05
2023-04-22T12:25:04.813Z,2.20
2023-04-22T12:27:35.030Z,2.05
2023-04-22T12:30:06.136Z,2.40
2023-04-22T12:32:36.365Z,2.30
2023-04-22T12:35:06.751Z,2.28
2023-04-22T12:37:37.513Z,2.30
2023-04-22T12:40:08.471Z,2.70
2023-04-22T12:42:38.642Z,2.90
2023-04-22T12:45:10.670Z,2.70
2023-04-22T12:47:41.282Z,3.28
2023-04-22T12:50:11.832Z,2.85
2023-04-22T12:52:42.223Z,3.22
2023-04-22T12:55:12.668Z,2.88
2023-04-22T12:57:43.068Z,3.25
2023-04-22T13:00:16.240Z,3.45
2023-04-22T13:02:48.416Z,3.42
2023-04-22T13:05:20.767Z,3.47
2023-04-22T13:08:05.732Z,3.30
2023-04-22T13:10:37.492Z,3.17
2023-04-22T13:13:18.406Z,3.40
2023-04-22T13:15:54.986Z,3.80
2023-04-22T13:18:26.001Z,4.40
2023-04-22T13:20:58.601Z,3.85
2023-04-22T13:23:29.337Z,3.70
2023-04-22T13:25:59.705Z,3.47
2023-04-22T13:28:30.703Z,3.78
2023-04-22T13:31:00.975Z,4.03
2023-04-22T13:33:31.189Z,3.83
2023-04-22T13:36:01.529Z,4.70
2023-04-22T13:38:31.802Z,3.92
2023-04-22T13:41:03.358Z,3.92
2023-04-22T13:43:33.751Z,3.55
2023-04-22T13:46:04.264Z,4.20
2023-04-22T13:48:34.577Z,3.97
2023-04-22T13:51:04.932Z,3.67
2023-04-22T13:53:35.160Z,4.18
2023-04-22T13:56:05.394Z,4.25
2023-04-22T13:58:35.746Z,3.90
2023-04-22T14:01:06.164Z,3.90
2023-04-22T14:03:37.143Z,3.85
2023-04-22T14:06:07.948Z,3.83
2023-04-22T14:08:38.934Z,3.95
2023-04-22T14:11:11.640Z,3.30
2023-04-22T14:13:42.402Z,4.00
2023-04-22T14:16:13.731Z,4.18
2023-04-22T14:18:44.392Z,4.18
2023-04-22T14:21:15.508Z,4.00
2023-04-22T14:23:45.748Z,4.00
2023-04-22T14:26:16.156Z,4.18
2023-04-22T14:28:49.603Z,3.70
2023-04-22T14:31:20.196Z,3.58
2023-04-22T14:33:50.451Z,3.85
2023-04-22T14:36:20.877Z,3.65
2023-04-22T14:38:51.168Z,3.72
2023-04-22T14:41:21.394Z,3.63
2023-04-22T14:43:51.649Z,3.50
2023-04-22T14:46:22.004Z,4.18
2023-04-22T14:48:52.306Z,3.97
2023-04-22T14:51:22.865Z,3.88
2023-04-22T14:53:53.259Z,4.18
2023-04-22T14:56:23.538Z,3.60
2023-04-22T14:58:53.713Z,3.78
2023-04-22T15:01:24.859Z,3.78
2023-04-22T15:03:55.170Z,3.88
2023-04-22T15:06:26.113Z,3.58
2023-04-22T15:08:57.658Z,4.13
2023-04-22T15:11:28.189Z,4.25
2023-04-22T15:13:58.636Z,4.20
2023-04-22T15:16:29.211Z,4.13
2023-04-22T15:18:59.874Z,3.70
2023-04-22T15:21:30.427Z,3.97
2023-04-22T15:24:00.878Z,3.80
2023-04-22T15:26:31.416Z,4.00
2023-04-22T15:29:02.594Z,3.92
2023-04-22T15:31:32.981Z,3.92
2023-04-22T15:34:03.438Z,3.47
2023-04-22T15:36:34.882Z,3.50
2023-04-22T15:39:08.716Z,3.97
2023-04-22T15:41:39.277Z,3.25
2023-04-22T15:44:10.559Z,3.80
2023-04-22T15:46:42.968Z,4.18
2023-04-22T15:49:13.344Z,3.85
2023-04-22T15:51:44.270Z,4.20
2023-04-22T15:54:15.245Z,3.78
2023-04-22T15:56:45.486Z,3.80
2023-04-22T15:59:15.712Z,3.80
2023-04-22T16:01:46.656Z,3.85
2023-04-22T16:04:17.699Z,3.72
2023-04-22T16:06:50.760Z,3.90
2023-04-22T16:09:21.369Z,3.47
2023-04-22T16:11:51.902Z,3.92
2023-04-22T16:14:22.274Z,3.30
2023-04-22T16:16:53.668Z,3.33
2023-04-22T16:19:23.953Z,3.97
2023-04-22T16:21:54.245Z,4.03
2023-04-22T16:24:24.518Z,3.80
2023-04-22T16:26:54.772Z,3.33
2023-04-22T16:29:25.051Z,3.80
2023-04-22T16:31:55.319Z,3.58
2023-04-22T16:34:25.525Z,3.40
2023-04-22T16:36:55.745Z,3.35
2023-04-22T16:39:25.932Z,4.03
2023-04-22T16:41:57.050Z,3.22
2023-04-22T16:44:27.336Z,2.92
2023-04-22T16:46:57.558Z,3.45
2023-04-22T16:49:27.874Z,3.20
2023-04-22T16:51:58.095Z,3.65
2023-04-22T16:54:28.452Z,3.65
2023-04-22T16:56:59.209Z,3.35
2023-04-22T17:02:00.221Z,3.20
2023-04-22T17:04:30.660Z,3.22
2023-04-22T17:07:01.082Z,3.25
2023-04-22T17:09:31.284Z,3.10
2023-04-22T17:12:01.790Z,3.58
2023-04-22T17:14:32.708Z,2.80
2023-04-22T17:17:02.989Z,3.35
2023-04-22T17:19:33.282Z,3.03
2023-04-22T17:22:03.556Z,2.85
2023-04-22T17:24:33.905Z,3.20
2023-04-22T17:27:04.620Z,3.13
2023-04-22T17:29:34.934Z,2.97
2023-04-22T17:32:05.139Z,3.15
2023-04-22T17:34:35.380Z,3.03
2023-04-22T17:37:05.503Z,3.28
2023-04-22T17:39:35.863Z,3.00
2023-04-22T17:42:06.125Z,3.33
2023-04-22T17:44:36.679Z,3.42
2023-04-22T17:47:07.813Z,3.15
2023-04-22T17:49:38.930Z,2.90
2023-04-22T17:52:09.421Z,3.25
2023-04-22T17:54:40.170Z,3.05
2023-04-22T17:57:10.912Z,3.13
2023-04-22T17:59:41.495Z,3.00
2023-04-22T18:02:14.005Z,3.08
2023-04-22T18:04:44.462Z,3.20
2023-04-22T18:07:14.617Z,2.78
2023-04-22T18:09:45.620Z,2.88
2023-04-22T18:12:16.354Z,2.80
2023-04-22T18:14:46.846Z,2.97
2023-04-22T18:17:21.691Z,2.70
2023-04-22T18:19:52.204Z,3.28
2023-04-22T18:22:23.382Z,2.67
2023-04-22T18:24:53.945Z,3.13
2023-04-22T18:27:24.101Z,3.30
2023-04-22T18:29:55.037Z,2.60
2023-04-22T18:32:25.412Z,2.60
2023-04-22T18:34:55.745Z,3.20
2023-04-22T18:37:26.547Z,2.85
2023-04-22T18:39:56.891Z,2.53
2023-04-22T18:42:27.631Z,2.53
2023-04-22T18:44:58.031Z,3.25
2023-04-22T18:47:28.457Z,2.78
2023-04-22T18:49:59.700Z,2.58
2023-04-22T18:52:29.971Z,2.83
2023-04-22T18:55:00.258Z,3.00
2023-04-22T18:57:30.564Z,2.80
2023-04-22T19:00:00.800Z,3.28
2023-04-22T19:02:31.143Z,3.38
2023-04-22T19:05:01.652Z,2.45
2023-04-22T19:07:32.045Z,2.90
2023-04-22T19:10:02.300Z,2.90
2023-04-22T19:12:32.639Z,2.50
2023-04-22T19:15:03.213Z,2.63
2023-04-22T19:17:33.543Z,2.75
2023-04-22T19:20:03.939Z,3.00
2023-04-22T19:22:34.586Z,2.60
2023-04-22T19:25:05.191Z,2.65
2023-04-22T19:27:36.268Z,2.60
2023-04-22T19:30:08.345Z,2.75
2023-04-22T19:32:38.668Z,2.75
2023-04-22T19:35:10.818Z,2.80
2023-04-22T19:37:41.262Z,2.83
2023-04-22T19:40:13.883Z,2.47
2023-04-22T19:42:45.021Z,2.53
2023-04-22T19:45:15.492Z,2.78
2023-04-22T19:47:46.060Z,2.80
2023-04-22T19:50:18.217Z,2.65
2023-04-22T19:52:49.498Z,2.75
2023-04-22T19:55:21.203Z,2.63
2023-04-22T19:57:52.394Z,2.80
2023-04-22T20:00:23.620Z,2.20
2023-04-22T20:02:54.335Z,2.75
2023-04-22T20:05:25.173Z,2.42
2023-04-22T20:07:59.581Z,2.83
2023-04-22T20:10:30.908Z,2.55
2023-04-22T20:13:01.593Z,2.50
2023-04-22T20:15:32.921Z,2.35
2023-04-22T20:18:03.465Z,2.50
2023-04-22T20:20:34.181Z,2.80
2023-04-22T20:23:11.637Z,2.40
2023-04-22T20:25:48.790Z,2.38
2023-04-22T20:28:19.983Z,2.42
2023-04-22T20:30:50.437Z,2.75
2023-04-22T20:33:22.597Z,2.22
2023-04-22T20:35:53.352Z,2.42
2023-04-22T20:38:32.492Z,2.50
2023-04-22T20:41:08.804Z,2.00
2023-04-22T20:43:39.064Z,2.70
2023-04-22T20:46:09.431Z,2.33
2023-04-22T20:48:39.634Z,2.35
2023-04-22T20:51:09.900Z,2.30
2023-04-22T20:53:40.220Z,2.40
2023-04-22T20:56:10.584Z,2.25
2023-04-22T20:58:40.970Z,2.13
2023-04-22T21:01:11.887Z,2.30
2023-04-22T21:03:42.378Z,2.28
2023-04-22T21:06:12.869Z,2.05
2023-04-22T21:08:43.683Z,2.33
2023-04-22T21:11:14.270Z,2.13
2023-04-22T21:13:46.768Z,1.88
2023-04-22T21:16:20.754Z,1.80
2023-04-22T21:18:52.594Z,1.77
2023-04-22T21:21:29.049Z,1.67
2023-04-22T21:24:00.463Z,1.80
2023-04-22T21:26:35.670Z,1.88
2023-04-22T21:29:06.057Z,1.90
2023-04-22T21:31:36.375Z,1.70
2023-04-22T21:34:10.069Z,1.60
2023-04-22T21:36:40.433Z,1.60
2023-04-22T21:39:10.755Z,1.40
2023-04-22T21:41:40.947Z,1.48
2023-04-22T21:44:11.259Z,1.42
2023-04-22T21:46:41.686Z,1.38
2023-04-22T21:49:12.465Z,1.67
2023-04-22T21:51:42.736Z,1.48
2023-04-22T21:54:13.128Z,1.30
2023-04-22T21:56:43.583Z,1.27
2023-04-22T21:59:13.821Z,1.70
2023-04-22T22:01:44.223Z,1.40
2023-04-22T22:04:16.233Z,1.20
2023-04-22T22:06:47.543Z,1.15
2023-04-22T22:09:17.800Z,1.20
2023-04-22T22:11:48.074Z,1.30
2023-04-22T22:14:18.259Z,1.58
2023-04-22T22:16:48.742Z,1.35
2023-04-22T22:19:19.212Z,1.30
2023-04-22T22:21:49.485Z,1.58
2023-04-22T22:24:19.777Z,1.40
2023-04-22T22:26:50.578Z,1.20
2023-04-22T22:29:20.748Z,1.40
2023-04-22T22:31:51.020Z,1.63
2023-04-22T22:34:21.267Z,1.30
2023-04-22T22:36:51.485Z,1.40
2023-04-22T22:39:21.728Z,1.08
2023-04-22T22:41:52.034Z,1.42
2023-04-22T22:44:22.547Z,1.40
2023-04-22T22:46:52.755Z,1.48
2023-04-22T22:49:23.671Z,1.55
2023-04-22T22:51:54.002Z,1.40
2023-04-22T22:54:24.365Z,1.40
2023-04-22T22:56:54.706Z,1.40
2023-04-22T22:59:25.849Z,1.65
2023-04-22T23:01:57.808Z,1.40
2023-04-22T23:04:32.047Z,1.60
2023-04-22T23:07:03.562Z,2.00
2023-04-22T23:09:33.866Z,1.63
2023-04-22T23:12:04.940Z,1.48
2023-04-22T23:14:35.753Z,1.42
2023-04-22T23:17:06.155Z,1.45
2023-04-22T23:19:37.082Z,1.58
2023-04-22T23:22:08.534Z,1.90
2023-04-22T23:24:40.150Z,1.58
2023-04-22T23:27:10.770Z,1.80
2023-04-22T23:29:41.788Z,2.13
2023-04-22T23:32:16.947Z,1.90
2023-04-22T23:34:50.359Z,1.48
2023-04-22T23:37:22.383Z,1.80
2023-04-22T23:39:52.819Z,1.75
2023-04-22T23:42:24.708Z,1.70
2023-04-22T23:44:55.167Z,1.85
2023-04-22T23:47:25.578Z,1.88
2023-04-22T23:49:56.856Z,1.60
2023-04-22T23:52:27.332Z,1.63
2023-04-22T23:54:59.862Z,1.70
2023-04-22T23:57:31.037Z,1.98
